createdAt,value
2018-06-28T00:02:27.878Z,7.27
2018-06-28T00:04:56.485Z,7.83
2018-06-28T00:07:25.076Z,7.50
2018-06-28T00:09:53.777Z,8.10
2018-06-28T00:12:22.369Z,8.00
2018-06-28T00:14:51.012Z,7.33
2018-06-28T00:17:19.584Z,7.40
2018-06-28T00:19:48.162Z,7.13
2018-06-28T00:22:16.759Z,6.90
2018-06-28T00:24:45.366Z,7.07
2018-06-28T00:27:13.928Z,7.30
2018-06-28T00:29:42.560Z,7.60
2018-06-28T00:32:11.128Z,6.87
2018-06-28T00:34:39.717Z,6.80
2018-06-28T00:37:08.392Z,7.20
2018-06-28T00:39:36.979Z,7.80
2018-06-28T00:42:05.603Z,7.20
2018-06-28T00:44:34.206Z,7.10
2018-06-28T00:47:02.796Z,7.43
2018-06-28T00:49:31.381Z,7.37
2018-06-28T00:51:59.985Z,7.80
2018-06-28T00:54:28.596Z,7.70
2018-06-28T00:56:57.198Z,8.57
2018-06-28T00:59:25.782Z,8.23
2018-06-28T01:01:54.374Z,7.60
2018-06-28T01:04:22.980Z,7.80
2018-06-28T01:06:51.583Z,8.33
2018-06-28T01:09:20.157Z,8.30
2018-06-28T01:11:48.757Z,8.53
2018-06-28T01:14:17.364Z,7.87
2018-06-28T01:16:45.991Z,8.07
2018-06-28T01:19:14.587Z,8.20
2018-06-28T01:21:43.183Z,8.73
2018-06-28T01:24:11.812Z,8.93
2018-06-28T01:26:40.470Z,8.07
2018-06-28T01:29:09.064Z,8.07
2018-06-28T01:31:37.641Z,8.50
2018-06-28T01:34:06.230Z,8.47
2018-06-28T01:36:34.929Z,8.17
2018-06-28T01:39:03.732Z,8.60
2018-06-28T01:42:36.488Z,8.40
2018-06-28T01:45:05.052Z,8.57
2018-06-28T01:47:33.656Z,8.57
2018-06-28T01:50:02.228Z,8.60
2018-06-28T01:52:30.807Z,8.70
2018-06-28T01:54:59.384Z,8.43
2018-06-28T01:57:27.944Z,8.10
2018-06-28T01:59:56.567Z,7.87
2018-06-28T02:02:25.181Z,8.10
2018-06-28T02:04:53.767Z,7.90
2018-06-28T02:07:22.349Z,8.80
2018-06-28T02:09:50.940Z,8.40
2018-06-28T02:12:19.662Z,8.50
2018-06-28T02:14:48.226Z,8.47
2018-06-28T02:17:16.835Z,7.93
2018-06-28T02:19:45.421Z,7.80
2018-06-28T02:22:14.154Z,7.27
2018-06-28T02:24:42.760Z,7.07
2018-06-28T02:27:11.344Z,7.83
2018-06-28T02:29:39.963Z,8.00
2018-06-28T02:32:08.561Z,8.77
2018-06-28T02:34:37.136Z,8.00
2018-06-28T02:37:05.753Z,8.40
2018-06-28T02:39:34.400Z,8.23
2018-06-28T02:42:03.264Z,8.50
2018-06-28T02:44:31.848Z,7.30
2018-06-28T02:47:00.412Z,7.40
2018-06-28T02:49:28.997Z,7.67
2018-06-28T02:51:57.609Z,7.77
2018-06-28T02:54:26.221Z,7.10
2018-06-28T02:56:54.841Z,7.73
2018-06-28T02:59:23.426Z,7.00
2018-06-28T03:01:52.097Z,6.77
2018-06-28T03:04:20.701Z,7.10
2018-06-28T03:06:49.325Z,6.87
2018-06-28T03:09:17.917Z,7.23
2018-06-28T03:11:46.509Z,7.23
2018-06-28T03:14:15.096Z,7.23
2018-06-28T03:16:43.681Z,7.10
2018-06-28T03:19:12.305Z,7.20
2018-06-28T03:21:40.888Z,6.90
2018-06-28T03:24:09.523Z,7.20
2018-06-28T03:26:38.121Z,7.37
2018-06-28T03:29:06.842Z,7.47
2018-06-28T03:31:35.478Z,7.20
2018-06-28T03:34:04.074Z,6.87
2018-06-28T03:36:32.685Z,7.30
2018-06-28T03:39:01.250Z,7.30
2018-06-28T03:41:29.828Z,7.33
2018-06-28T03:43:58.461Z,7.43
2018-06-28T03:46:27.036Z,7.40
2018-06-28T03:48:55.604Z,7.03
2018-06-28T03:51:24.193Z,6.77
2018-06-28T03:53:52.808Z,6.83
2018-06-28T03:56:21.401Z,6.97
2018-06-28T03:58:49.953Z,6.17
2018-06-28T04:01:18.563Z,6.20
2018-06-28T04:03:47.157Z,6.80
2018-06-28T04:06:15.720Z,6.60
2018-06-28T04:08:44.312Z,6.30
2018-06-28T04:11:12.952Z,6.67
2018-06-28T04:13:41.617Z,6.13
2018-06-28T04:16:10.251Z,6.10
2018-06-28T04:18:38.822Z,6.40
2018-06-28T04:21:07.442Z,6.80
2018-06-28T04:23:36.034Z,6.20
2018-06-28T04:26:04.636Z,6.43
2018-06-28T04:28:33.562Z,6.63
2018-06-28T04:31:02.664Z,6.53
2018-06-28T04:33:31.344Z,6.57
2018-06-28T04:36:00.005Z,6.17
2018-06-28T04:38:28.585Z,5.80
2018-06-28T04:40:57.158Z,5.97
2018-06-28T04:43:25.754Z,5.83
2018-06-28T04:45:54.364Z,5.80
2018-06-28T04:48:22.951Z,6.20
2018-06-28T04:50:51.565Z,6.03
2018-06-28T04:53:20.208Z,5.60
2018-06-28T04:55:48.785Z,6.00
2018-06-28T04:58:17.380Z,6.53
2018-06-28T05:00:45.975Z,6.00
2018-06-28T05:03:14.581Z,5.93
2018-06-28T05:05:43.162Z,6.27
2018-06-28T05:08:11.773Z,5.70
2018-06-28T05:10:40.330Z,5.57
2018-06-28T05:13:08.924Z,5.73
2018-06-28T05:15:37.486Z,5.43
2018-06-28T05:18:06.077Z,5.40
2018-06-28T05:20:34.688Z,5.80
2018-06-28T05:23:03.280Z,5.47
2018-06-28T05:25:31.894Z,5.00
2018-06-28T05:28:00.553Z,5.70
2018-06-28T05:30:29.137Z,4.93
2018-06-28T05:32:57.748Z,5.40
2018-06-28T05:35:26.336Z,5.43
2018-06-28T05:37:54.931Z,5.03
2018-06-28T05:40:23.517Z,5.47
2018-06-28T05:42:52.101Z,5.47
2018-06-28T05:45:20.661Z,4.93
2018-06-28T05:47:49.387Z,5.40
2018-06-28T05:50:18.073Z,5.20
2018-06-28T05:52:46.655Z,4.80
2018-06-28T05:55:15.249Z,5.07
2018-06-28T05:57:43.854Z,5.00
2018-06-28T06:00:12.437Z,5.37
2018-06-28T06:02:41.071Z,4.83
2018-06-28T06:05:09.648Z,5.17
2018-06-28T06:07:38.269Z,5.10
2018-06-28T06:10:06.858Z,5.37
2018-06-28T06:12:35.444Z,5.13
2018-06-28T06:15:04.113Z,4.90
2018-06-28T06:17:32.698Z,4.50
2018-06-28T06:20:01.315Z,5.23
2018-06-28T06:22:29.892Z,5.03
2018-06-28T06:24:58.440Z,5.00
2018-06-28T06:27:27.032Z,5.10
2018-06-28T06:29:55.568Z,5.00
2018-06-28T06:32:24.097Z,5.03
2018-06-28T06:34:52.660Z,5.17
2018-06-28T06:37:21.328Z,4.83
2018-06-28T06:39:49.912Z,5.13
2018-06-28T06:42:18.632Z,5.80
2018-06-28T06:44:46.840Z,5.37
2018-06-28T06:47:15.396Z,5.03
2018-06-28T06:49:43.935Z,5.17
2018-06-28T06:52:12.514Z,5.33
2018-06-28T06:54:41.060Z,5.37
2018-06-28T06:57:09.609Z,5.43
2018-06-28T06:59:38.177Z,4.70
2018-06-28T07:02:06.721Z,4.90
2018-06-28T07:04:35.292Z,5.00
2018-06-28T07:07:03.844Z,6.13
2018-06-28T07:09:32.384Z,5.63
2018-06-28T07:12:00.927Z,5.80
2018-06-28T07:14:29.459Z,5.27
2018-06-28T07:16:57.988Z,5.17
2018-06-28T07:19:26.592Z,5.53
2018-06-28T07:21:55.149Z,4.67
2018-06-28T07:24:23.755Z,5.77
2018-06-28T07:26:52.344Z,5.43
2018-06-28T07:31:55.904Z,4.90
2018-06-28T07:34:24.469Z,4.83
2018-06-28T07:36:53.069Z,4.97
2018-06-28T07:39:21.657Z,5.13
2018-06-28T07:41:50.232Z,4.83
2018-06-28T07:44:18.835Z,4.90
2018-06-28T07:46:47.462Z,4.80
2018-06-28T07:49:16.060Z,5.07
2018-06-28T07:51:44.680Z,4.53
2018-06-28T07:54:13.276Z,4.47
2018-06-28T07:56:41.848Z,5.00
2018-06-28T07:59:10.416Z,5.73
2018-06-28T08:01:39.012Z,5.40
2018-06-28T08:04:07.638Z,5.00
2018-06-28T08:06:36.210Z,5.40
2018-06-28T08:09:06.302Z,5.87
2018-06-28T08:11:34.880Z,6.63
2018-06-28T08:14:03.481Z,7.07
2018-06-28T08:16:32.048Z,6.90
2018-06-28T08:19:00.689Z,7.47
2018-06-28T08:21:29.352Z,7.80
2018-06-28T08:23:57.928Z,8.03
2018-06-28T08:26:26.543Z,9.10
2018-06-28T08:28:55.123Z,10.47
2018-06-28T08:31:23.715Z,10.53
2018-06-28T08:33:52.325Z,10.40
2018-06-28T08:36:21.005Z,8.70
2018-06-28T08:38:49.596Z,7.80
2018-06-28T08:41:18.188Z,15.67
2018-06-28T08:43:46.814Z,9.47
2018-06-28T08:46:15.404Z,8.27
2018-06-28T08:48:44.043Z,9.10
2018-06-28T08:53:57.004Z,8.67
2018-06-28T08:56:25.843Z,8.80
2018-06-28T08:58:54.073Z,8.53
2018-06-28T09:01:22.768Z,8.33
2018-06-28T09:03:51.384Z,8.00
2018-06-28T09:06:19.986Z,8.03
2018-06-28T09:08:48.542Z,8.10
2018-06-28T09:11:17.121Z,8.07
2018-06-28T09:13:45.724Z,7.87
2018-06-28T09:16:14.390Z,7.83
2018-06-28T09:18:43.503Z,8.43
2018-06-28T09:21:12.071Z,7.27
2018-06-28T09:23:40.646Z,8.57
2018-06-28T09:26:08.878Z,8.73
2018-06-28T09:28:37.111Z,7.53
2018-06-28T09:31:05.824Z,8.57
2018-06-28T09:33:34.418Z,9.27
2018-06-28T09:36:03.021Z,9.97
2018-06-28T09:38:31.693Z,8.93
2018-06-28T09:41:00.281Z,8.47
2018-06-28T09:43:28.869Z,8.10
2018-06-28T09:45:57.484Z,9.10
2018-06-28T09:48:25.714Z,8.30
2018-06-28T09:50:54.260Z,8.43
2018-06-28T09:53:22.825Z,8.83
2018-06-28T09:55:51.394Z,9.03
2018-06-28T09:58:20.017Z,9.63
2018-06-28T10:00:48.590Z,9.20
2018-06-28T10:03:17.368Z,7.77
2018-06-28T10:05:45.937Z,8.70
2018-06-28T10:08:14.544Z,7.60
2018-06-28T10:10:43.157Z,7.37
2018-06-28T10:13:11.803Z,7.87
2018-06-28T10:15:40.448Z,6.83
2018-06-28T10:18:09.047Z,5.93
2018-06-28T10:20:37.696Z,6.50
2018-06-28T10:23:06.067Z,6.70
2018-06-28T10:25:34.327Z,6.93
2018-06-28T10:28:02.575Z,6.40
2018-06-28T10:30:30.827Z,5.93
2018-06-28T10:32:59.040Z,6.07
2018-06-28T10:35:27.255Z,5.73
2018-06-28T10:37:55.550Z,6.20
2018-06-28T10:40:23.835Z,5.93
2018-06-28T10:42:52.072Z,5.47
2018-06-28T10:45:20.324Z,5.90
2018-06-28T10:47:48.557Z,6.17
2018-06-28T10:52:51.350Z,5.40
2018-06-28T10:55:19.645Z,6.10
2018-06-28T10:57:48.666Z,5.07
2018-06-28T11:00:17.195Z,5.83
2018-06-28T11:02:45.407Z,5.10
2018-06-28T11:05:13.603Z,5.00
2018-06-28T11:07:41.824Z,5.60
2018-06-28T11:10:10.022Z,6.03
2018-06-28T11:12:38.543Z,5.43
2018-06-28T11:15:06.796Z,5.40
2018-06-28T11:17:35.000Z,5.20
2018-06-28T11:20:03.208Z,5.37
2018-06-28T11:22:31.639Z,4.50
2018-06-28T11:24:59.827Z,5.27
2018-06-28T11:27:28.049Z,5.13
2018-06-28T11:29:56.236Z,5.17
2018-06-28T11:32:24.441Z,5.40
2018-06-28T11:34:52.639Z,4.70
2018-06-28T11:37:20.831Z,5.17
2018-06-28T11:39:55.473Z,4.50
2018-06-28T11:42:23.811Z,5.10
2018-06-28T11:44:52.027Z,4.60
2018-06-28T11:47:20.256Z,4.63
2018-06-28T11:49:48.472Z,5.07
2018-06-28T11:52:16.678Z,4.10
2018-06-28T11:54:44.896Z,4.67
2018-06-28T11:57:13.095Z,4.80
2018-06-28T11:59:41.306Z,4.67
2018-06-28T12:02:09.586Z,4.50
2018-06-28T12:04:37.790Z,4.43
2018-06-28T12:07:06.007Z,4.47
2018-06-28T12:09:34.236Z,4.30
2018-06-28T12:12:02.583Z,4.10
2018-06-28T12:14:30.775Z,4.00
2018-06-28T12:16:58.964Z,3.87
2018-06-28T12:19:27.257Z,4.03
2018-06-28T12:21:55.451Z,3.77
2018-06-28T12:24:23.685Z,4.33
2018-06-28T12:26:51.879Z,3.93
2018-06-28T12:29:20.071Z,3.63
2018-06-28T12:31:48.298Z,4.07
2018-06-28T12:34:16.479Z,4.10
2018-06-28T12:36:44.690Z,4.03
2018-06-28T12:39:12.954Z,3.50
2018-06-28T12:41:41.176Z,4.20
2018-06-28T12:44:09.375Z,4.03
2018-06-28T12:47:51.563Z,4.23
2018-06-28T12:50:19.764Z,4.30
2018-06-28T12:52:52.514Z,4.57
2018-06-28T12:55:21.427Z,4.23
2018-06-28T12:57:49.911Z,3.90
2018-06-28T13:00:18.487Z,4.60
2018-06-28T13:02:46.999Z,4.60
2018-06-28T13:05:15.925Z,4.10
2018-06-28T13:07:44.206Z,4.47
2018-06-28T13:10:13.604Z,3.90
2018-06-28T13:12:41.938Z,4.40
2018-06-28T13:15:11.399Z,4.07
2018-06-28T13:17:40.114Z,3.80
2018-06-28T13:20:08.771Z,4.13
2018-06-28T13:22:37.089Z,3.50
2018-06-28T13:25:05.840Z,4.27
2018-06-28T13:27:34.156Z,4.50
2018-06-28T13:30:02.674Z,3.83
2018-06-28T13:32:30.929Z,3.53
2018-06-28T13:34:59.247Z,3.33
2018-06-28T13:37:27.516Z,4.03
2018-06-28T13:39:55.775Z,4.00
2018-06-28T13:42:24.030Z,3.97
2018-06-28T13:44:52.310Z,4.27
2018-06-28T13:47:20.669Z,3.90
2018-06-28T13:49:48.996Z,4.27
2018-06-28T13:52:17.243Z,4.07
2018-06-28T13:54:45.483Z,3.93
2018-06-28T13:57:13.742Z,4.20
2018-06-28T13:59:42.107Z,3.97
2018-06-28T14:02:10.353Z,4.50
2018-06-28T14:04:38.601Z,4.67
2018-06-28T14:07:06.826Z,4.70
2018-06-28T14:09:35.058Z,4.40
2018-06-28T14:12:03.292Z,4.47
2018-06-28T14:14:31.569Z,4.20
2018-06-28T14:16:59.779Z,4.23
2018-06-28T14:19:28.020Z,4.80
2018-06-28T14:21:56.243Z,4.03
2018-06-28T14:24:24.475Z,4.20
2018-06-28T14:26:52.712Z,4.37
2018-06-28T14:29:20.953Z,4.37
2018-06-28T14:31:49.195Z,4.80
2018-06-28T14:34:17.412Z,4.30
2018-06-28T14:36:45.662Z,4.53
2018-06-28T14:39:13.900Z,4.57
2018-06-28T14:41:42.196Z,4.30
2018-06-28T14:44:10.441Z,4.40
2018-06-28T14:46:38.670Z,4.17
2018-06-28T14:49:06.922Z,4.07
2018-06-28T14:51:35.156Z,4.00
2018-06-28T14:54:03.392Z,4.17
2018-06-28T14:56:31.616Z,3.83
2018-06-28T14:58:59.834Z,3.87
2018-06-28T15:01:28.099Z,3.90
2018-06-28T15:03:56.350Z,4.53
2018-06-28T15:06:24.608Z,3.90
2018-06-28T15:08:52.861Z,4.50
2018-06-28T15:11:21.101Z,4.60
2018-06-28T15:13:49.364Z,4.37
2018-06-28T15:16:17.600Z,4.03
2018-06-28T15:18:46.028Z,4.17
2018-06-28T15:21:14.329Z,4.63
2018-06-28T15:23:43.402Z,4.70
2018-06-28T15:26:11.663Z,4.53
2018-06-28T15:28:39.894Z,4.40
2018-06-28T15:31:08.361Z,4.70
2018-06-28T15:33:36.656Z,4.60
2018-06-28T15:36:04.932Z,4.57
2018-06-28T15:38:33.210Z,4.97
2018-06-28T15:41:01.434Z,5.07
2018-06-28T15:43:29.667Z,4.60
2018-06-28T15:45:57.947Z,4.90
2018-06-28T15:48:26.305Z,4.53
2018-06-28T15:50:54.569Z,5.10
2018-06-28T15:53:22.867Z,4.97
2018-06-28T15:55:51.123Z,4.50
2018-06-28T15:58:19.431Z,4.87
2018-06-28T16:00:47.758Z,4.40
2018-06-28T16:03:16.023Z,4.63
2018-06-28T16:05:44.280Z,5.23
2018-06-28T16:08:12.602Z,4.90
2018-06-28T16:10:40.829Z,5.00
2018-06-28T16:13:09.062Z,4.97
2018-06-28T16:15:37.310Z,4.70
2018-06-28T16:18:05.672Z,4.73
2018-06-28T16:20:33.895Z,5.70
2018-06-28T16:23:02.256Z,5.30
2018-06-28T16:25:30.527Z,5.17
2018-06-28T16:27:58.788Z,5.53
2018-06-28T16:30:27.194Z,5.00
2018-06-28T16:32:55.448Z,5.23
2018-06-28T16:35:23.729Z,5.50
2018-06-28T16:37:52.025Z,5.77
2018-06-28T16:40:20.332Z,5.53
2018-06-28T16:42:48.638Z,5.33
2018-06-28T16:45:16.946Z,5.27
2018-06-28T16:47:46.232Z,5.80
2018-06-28T16:50:14.561Z,5.20
2018-06-28T16:52:42.909Z,5.47
2018-06-28T16:55:11.175Z,5.40
2018-06-28T16:57:39.522Z,5.40
2018-06-28T17:00:07.915Z,5.63
2018-06-28T17:02:36.242Z,5.93
2018-06-28T17:05:04.820Z,6.20
2018-06-28T17:07:33.078Z,6.20
2018-06-28T17:10:01.555Z,6.10
2018-06-28T17:12:29.771Z,5.50
2018-06-28T17:14:58.011Z,5.63
2018-06-28T17:17:26.267Z,5.77
2018-06-28T17:19:54.500Z,5.30
2018-06-28T17:22:22.697Z,5.43
2018-06-28T17:24:50.924Z,5.53
2018-06-28T17:27:19.201Z,5.33
2018-06-28T17:29:47.387Z,6.73
2018-06-28T17:32:15.704Z,5.63
2018-06-28T17:34:43.964Z,5.47
2018-06-28T17:37:12.257Z,5.10
2018-06-28T17:39:40.486Z,6.20
2018-06-28T17:42:08.671Z,5.47
2018-06-28T17:44:36.912Z,5.90
2018-06-28T17:47:05.098Z,5.47
2018-06-28T17:49:33.349Z,5.43
2018-06-28T17:52:01.584Z,5.50
2018-06-28T17:54:29.840Z,5.63
2018-06-28T17:56:58.100Z,5.33
2018-06-28T17:59:26.319Z,5.77
2018-06-28T18:01:54.547Z,5.63
2018-06-28T18:04:22.751Z,5.80
2018-06-28T18:06:50.969Z,5.17
2018-06-28T18:09:19.175Z,5.37
2018-06-28T18:11:47.383Z,5.30
2018-06-28T18:14:15.617Z,5.20
2018-06-28T18:16:43.854Z,5.33
2018-06-28T18:19:12.089Z,5.87
2018-06-28T18:21:40.291Z,5.97
2018-06-28T18:24:08.486Z,6.13
2018-06-28T18:26:36.699Z,6.90
2018-06-28T18:29:04.915Z,5.67
2018-06-28T18:31:33.152Z,6.47
2018-06-28T18:34:01.384Z,6.80
2018-06-28T18:36:29.785Z,6.77
2018-06-28T18:38:58.023Z,7.13
2018-06-28T18:41:26.244Z,6.33
2018-06-28T18:43:54.482Z,6.60
2018-06-28T18:46:22.696Z,5.90
2018-06-28T18:48:50.918Z,5.37
2018-06-28T18:51:19.105Z,6.00
2018-06-28T18:53:47.361Z,5.80
2018-06-28T18:56:15.606Z,5.53
2018-06-28T18:58:43.814Z,5.80
2018-06-28T19:01:12.040Z,6.30
2018-06-28T19:03:40.257Z,6.17
2018-06-28T19:06:08.462Z,6.20
2018-06-28T19:08:36.692Z,5.43
2018-06-28T19:11:04.915Z,5.50
2018-06-28T19:13:33.178Z,5.30
2018-06-28T19:16:06.838Z,6.00
2018-06-28T19:18:38.611Z,5.30
2018-06-28T19:21:12.294Z,5.50
2018-06-28T19:23:46.315Z,6.30
2018-06-28T19:26:14.528Z,7.00
2018-06-28T19:28:42.735Z,7.07
2018-06-28T19:31:16.320Z,7.83
2018-06-28T19:33:44.568Z,8.20
2018-06-28T19:36:12.750Z,8.80
2018-06-28T19:38:46.339Z,8.80
2018-06-28T19:41:19.892Z,10.13
2018-06-28T19:43:48.121Z,8.33
2018-06-28T19:46:16.382Z,8.23
2018-06-28T19:48:45.406Z,7.53
2018-06-28T19:51:19.065Z,8.10
2018-06-28T19:53:47.290Z,9.27
2018-06-28T19:56:15.606Z,9.77
2018-06-28T19:58:43.822Z,8.37
2018-06-28T20:01:17.417Z,7.03
2018-06-28T20:03:51.123Z,7.03
2018-06-28T20:06:19.319Z,6.13
2018-06-28T20:08:47.513Z,6.53
2018-06-28T20:11:15.827Z,6.00
2018-06-28T20:13:49.612Z,6.57
2018-06-28T20:16:23.327Z,6.30
2018-06-28T20:18:56.956Z,7.30
2018-06-28T20:21:25.230Z,7.70
2018-06-28T20:23:53.465Z,7.87
2018-06-28T20:26:27.118Z,6.97
2018-06-28T20:29:00.772Z,6.60
2018-06-28T20:31:34.509Z,7.10
2018-06-28T20:34:07.591Z,6.60
2018-06-28T20:36:35.883Z,6.13
2018-06-28T20:39:05.791Z,6.20
2018-06-28T20:41:33.991Z,5.50
2018-06-28T20:44:02.195Z,6.53
2018-06-28T20:46:30.400Z,6.30
2018-06-28T20:48:58.627Z,6.77
2018-06-28T20:51:26.859Z,6.77
2018-06-28T20:53:55.081Z,7.03
2018-06-28T20:56:23.279Z,5.97
2018-06-28T20:58:51.482Z,6.53
2018-06-28T21:01:19.804Z,6.40
2018-06-28T21:03:48.047Z,6.03
2018-06-28T21:06:16.316Z,6.03
2018-06-28T21:08:44.562Z,6.33
2018-06-28T21:11:12.783Z,6.30
2018-06-28T21:13:41.058Z,6.50
2018-06-28T21:16:09.467Z,6.30
2018-06-28T21:18:37.735Z,6.30
2018-06-28T21:21:05.974Z,6.50
2018-06-28T21:23:34.187Z,7.17
2018-06-28T21:26:02.466Z,6.07
2018-06-28T21:28:30.707Z,6.67
2018-06-28T21:30:59.054Z,7.40
2018-06-28T21:33:27.303Z,7.30
2018-06-28T21:35:55.568Z,7.77
2018-06-28T21:38:23.771Z,7.37
2018-06-28T21:40:51.996Z,7.63
2018-06-28T21:43:20.264Z,7.57
2018-06-28T21:45:48.521Z,8.17
2018-06-28T21:48:16.855Z,7.40
2018-06-28T21:50:45.094Z,7.60
2018-06-28T21:53:13.319Z,8.30
2018-06-28T21:55:41.645Z,13.20
2018-06-28T21:58:09.871Z,8.37
2018-06-28T22:00:38.859Z,7.63
2018-06-28T22:03:08.071Z,7.67
2018-06-28T22:05:36.398Z,7.20
2018-06-28T22:08:05.209Z,7.70
2018-06-28T22:10:33.420Z,7.30
2018-06-28T22:13:01.657Z,7.03
2018-06-28T22:15:30.931Z,7.60
2018-06-28T22:18:03.201Z,7.10
2018-06-28T22:20:32.269Z,7.10
2018-06-28T22:23:00.508Z,7.10
2018-06-28T22:25:29.943Z,7.50
2018-06-28T22:27:58.188Z,7.23
2018-06-28T22:30:26.626Z,7.17
2018-06-28T22:32:54.879Z,7.00
2018-06-28T22:35:23.126Z,6.87
2018-06-28T22:37:51.391Z,7.37
2018-06-28T22:40:19.631Z,7.17
2018-06-28T22:42:47.866Z,7.07
2018-06-28T22:45:16.149Z,7.17
2018-06-28T22:47:44.398Z,7.27
2018-06-28T22:50:12.659Z,6.53
2018-06-28T22:52:40.918Z,7.20
2018-06-28T22:55:09.199Z,7.13
2018-06-28T22:57:37.456Z,7.43
2018-06-28T23:00:06.296Z,7.10
2018-06-28T23:02:34.532Z,7.60
2018-06-28T23:05:02.804Z,7.30
2018-06-28T23:07:31.056Z,7.67
2018-06-28T23:09:59.305Z,7.60
2018-06-28T23:12:27.826Z,8.00
2018-06-28T23:15:02.567Z,7.90
2018-06-28T23:17:31.008Z,7.60
2018-06-28T23:19:59.249Z,7.57
2018-06-28T23:22:35.054Z,7.37
2018-06-28T23:25:03.316Z,8.17
2018-06-28T23:27:31.594Z,8.03
2018-06-28T23:29:59.803Z,7.60
2018-06-28T23:32:28.039Z,8.00
2018-06-28T23:34:56.274Z,7.80
2018-06-28T23:37:24.486Z,8.20
2018-06-28T23:39:52.772Z,8.37
2018-06-28T23:42:21.040Z,8.60
2018-06-28T23:44:49.374Z,8.00
2018-06-28T23:47:17.611Z,8.27
2018-06-28T23:49:45.868Z,7.80
2018-06-28T23:52:14.238Z,8.03
2018-06-28T23:54:42.468Z,8.60
2018-06-28T23:57:10.694Z,8.43
2018-06-28T23:59:38.919Z,9.57
